sensor_id;sensor_type;location;lat;lon;timestamp;pressure;altitude;pressure_sealevel;temperature;humidity
80410;BME280;69746;45.596;10.154;2023-09-12T00:02:23;99373.50;;;27.08;47.71
80410;BME280;69746;45.596;10.154;2023-09-12T00:04:49;99378.28;;;27.07;47.74
80410;BME280;69746;45.596;10.154;2023-09-12T00:07:16;99377.09;;;27.08;47.71
80410;BME280;69746;45.596;10.154;2023-09-12T00:09:42;99375.47;;;27.07;47.83
80410;BME280;69746;45.596;10.154;2023-09-12T00:12:08;99371.50;;;27.08;47.73
80410;BME280;69746;45.596;10.154;2023-09-12T00:14:33;99372.69;;;27.07;47.74
80410;BME280;69746;45.596;10.154;2023-09-12T00:16:59;99375.47;;;27.07;47.67
80410;BME280;69746;45.596;10.154;2023-09-12T00:19:25;99381.06;;;27.07;48.11
80410;BME280;69746;45.596;10.154;2023-09-12T00:21:51;99371.88;;;27.07;47.88
80410;BME280;69746;45.596;10.154;2023-09-12T00:24:21;99365.44;;;27.06;47.95
80410;BME280;69746;45.596;10.154;2023-09-12T00:26:47;99365.44;;;27.06;47.94
80410;BME280;69746;45.596;10.154;2023-09-12T00:29:15;99357.41;;;27.04;47.80
80410;BME280;69746;45.596;10.154;2023-09-12T00:31:41;99354.59;;;27.04;47.82
80410;BME280;69746;45.596;10.154;2023-09-12T00:34:07;99359.84;;;27.06;48.15
80410;BME280;69746;45.596;10.154;2023-09-12T00:36:33;99359.84;;;27.06;47.77
80410;BME280;69746;45.596;10.154;2023-09-12T00:38:59;99357.41;;;27.04;48.06
80410;BME280;69746;45.596;10.154;2023-09-12T00:41:24;99353.78;;;27.04;47.72
80410;BME280;69746;45.596;10.154;2023-09-12T00:43:51;99348.19;;;27.04;47.98
80410;BME280;69746;45.596;10.154;2023-09-12T00:46:19;99353.78;;;27.04;47.81
80410;BME280;69746;45.596;10.154;2023-09-12T00:48:46;99348.56;;;27.02;47.86
80410;BME280;69746;45.596;10.154;2023-09-12T00:51:15;99351.00;;;27.04;47.92
80410;BME280;69746;45.596;10.154;2023-09-12T00:53:43;99348.19;;;27.04;47.94
80410;BME280;69746;45.596;10.154;2023-09-12T00:56:09;99345.41;;;27.04;47.75
80410;BME280;69746;45.596;10.154;2023-09-12T00:58:35;99339.78;;;27.04;47.90
80410;BME280;69746;45.596;10.154;2023-09-12T01:01:02;99344.22;;;27.05;48.05
80410;BME280;69746;45.596;10.154;2023-09-12T01:03:28;99338.16;;;27.03;47.83
80410;BME280;69746;45.596;10.154;2023-09-12T01:05:54;99336.19;;;27.03;47.88
80410;BME280;69746;45.596;10.154;2023-09-12T01:08:20;99333.38;;;27.03;48.08
80410;BME280;69746;45.596;10.154;2023-09-12T01:10:50;99325.56;;;26.97;47.98
80410;BME280;69746;45.596;10.154;2023-09-12T01:13:19;99340.16;;;27.02;47.75
80410;BME280;69746;45.596;10.154;2023-09-12T01:15:45;99336.53;;;27.02;48.12
80410;BME280;69746;45.596;10.154;2023-09-12T01:18:11;99340.97;;;27.03;48.03
80410;BME280;69746;45.596;10.154;2023-09-12T01:20:39;99333.75;;;27.02;48.07
80410;BME280;69746;45.596;10.154;2023-09-12T01:28:34;99325.66;;;27.00;47.88
80410;BME280;69746;45.596;10.154;2023-09-12T01:31:03;99328.47;;;27.00;47.95
80410;BME280;69746;45.596;10.154;2023-09-12T01:33:29;99331.63;;;26.99;47.94
80410;BME280;69746;45.596;10.154;2023-09-12T01:35:55;99336.06;;;27.00;47.80
80410;BME280;69746;45.596;10.154;2023-09-12T01:38:21;99332.44;;;26.99;47.85
80410;BME280;69746;45.596;10.154;2023-09-12T01:40:51;99328.47;;;27.00;48.08
80410;BME280;69746;45.596;10.154;2023-09-12T01:43:21;99339.66;;;27.00;48.06
80410;BME280;69746;45.596;10.154;2023-09-12T01:45:52;99335.25;;;26.99;47.97
80410;BME280;69746;45.596;10.154;2023-09-12T01:48:32;99340.84;;;26.99;47.98
80410;BME280;69746;45.596;10.154;2023-09-12T01:51:01;99332.44;;;26.99;48.20
80410;BME280;69746;45.596;10.154;2023-09-12T01:53:28;99331.63;;;26.99;48.11
80410;BME280;69746;45.596;10.154;2023-09-12T01:55:57;99332.44;;;26.99;47.89
80410;BME280;69746;45.596;10.154;2023-09-12T01:58:25;99330.81;;;26.98;48.03
80410;BME280;69746;45.596;10.154;2023-09-12T02:00:51;99330.00;;;26.98;47.88
80410;BME280;69746;45.596;10.154;2023-09-12T02:03:17;99335.59;;;26.98;48.04
80410;BME280;69746;45.596;10.154;2023-09-12T02:05:43;99339.22;;;26.98;47.87
80410;BME280;69746;45.596;10.154;2023-09-12T02:08:09;99333.63;;;26.98;47.80
80410;BME280;69746;45.596;10.154;2023-09-12T02:10:35;99335.97;;;26.96;48.15
80410;BME280;69746;45.596;10.154;2023-09-12T02:13:01;99335.59;;;26.98;47.93
80410;BME280;69746;45.596;10.154;2023-09-12T02:15:27;99336.78;;;26.97;47.94
80410;BME280;69746;45.596;10.154;2023-09-12T02:17:53;99337.59;;;26.97;47.85
80410;BME280;69746;45.596;10.154;2023-09-12T02:20:18;99346.00;;;26.97;48.14
80410;BME280;69746;45.596;10.154;2023-09-12T02:22:49;99346.34;;;26.96;47.97
80410;BME280;69746;45.596;10.154;2023-09-12T02:25:15;99337.09;;;26.95;47.99
80410;BME280;69746;45.596;10.154;2023-09-12T02:27:41;99337.94;;;26.96;48.04
80410;BME280;69746;45.596;10.154;2023-09-12T02:30:07;99342.69;;;26.95;47.98
80410;BME280;69746;45.596;10.154;2023-09-12T02:32:33;99342.69;;;26.95;47.97
80410;BME280;69746;45.596;10.154;2023-09-12T02:34:59;99343.53;;;26.96;47.90
80410;BME280;69746;45.596;10.154;2023-09-12T02:37:25;99345.50;;;26.95;48.15
80410;BME280;69746;45.596;10.154;2023-09-12T02:39:51;99348.28;;;26.95;47.87
80410;BME280;69746;45.596;10.154;2023-09-12T02:42:16;99349.16;;;26.96;48.17
80410;BME280;69746;45.596;10.154;2023-09-12T02:44:43;99341.88;;;26.95;48.01
80410;BME280;69746;45.596;10.154;2023-09-12T02:47:08;99348.28;;;26.95;47.97
80410;BME280;69746;45.596;10.154;2023-09-12T02:49:34;99344.69;;;26.95;47.95
80410;BME280;69746;45.596;10.154;2023-09-12T02:52:00;99346.66;;;26.94;47.74
80410;BME280;69746;45.596;10.154;2023-09-12T02:54:26;99342.25;;;26.93;48.07
80410;BME280;69746;45.596;10.154;2023-09-12T02:56:52;99343.06;;;26.94;47.83
80410;BME280;69746;45.596;10.154;2023-09-12T02:59:17;99341.06;;;26.94;47.81
80410;BME280;69746;45.596;10.154;2023-09-12T03:01:44;99332.69;;;26.94;47.92
80410;BME280;69746;45.596;10.154;2023-09-12T03:04:10;99343.88;;;26.94;48.10
80410;BME280;69746;45.596;10.154;2023-09-12T03:06:36;99347.84;;;26.93;48.10
80410;BME280;69746;45.596;10.154;2023-09-12T03:09:01;99347.84;;;26.93;47.92
80410;BME280;69746;45.596;10.154;2023-09-12T03:11:28;99336.66;;;26.93;47.96
80410;BME280;69746;45.596;10.154;2023-09-12T03:13:55;99339.44;;;26.93;47.89
80410;BME280;69746;45.596;10.154;2023-09-12T03:16:21;99337.47;;;26.94;47.98
80410;BME280;69746;45.596;10.154;2023-09-12T03:18:49;99343.41;;;26.92;47.68
80410;BME280;69746;45.596;10.154;2023-09-12T03:21:15;99339.00;;;26.91;47.92
80410;BME280;69746;45.596;10.154;2023-09-12T03:23:41;99337.00;;;26.92;47.81
80410;BME280;69746;45.596;10.154;2023-09-12T03:26:07;99334.22;;;26.92;47.91
80410;BME280;69746;45.596;10.154;2023-09-12T03:28:33;99335.84;;;26.93;48.06
80410;BME280;69746;45.596;10.154;2023-09-12T03:31:10;99332.22;;;26.92;48.00
80410;BME280;69746;45.596;10.154;2023-09-12T03:33:40;99326.97;;;26.91;48.03
80410;BME280;69746;45.596;10.154;2023-09-12T03:36:07;99331.75;;;26.90;47.93
80410;BME280;69746;45.596;10.154;2023-09-12T03:38:34;99324.91;;;26.88;48.01
80410;BME280;69746;45.596;10.154;2023-09-12T03:41:00;99322.91;;;26.88;48.01
80410;BME280;69746;45.596;10.154;2023-09-12T03:43:26;99320.94;;;26.89;47.87
80410;BME280;69746;45.596;10.154;2023-09-12T03:45:53;99325.72;;;26.88;47.67
80410;BME280;69746;45.596;10.154;2023-09-12T03:48:19;99330.50;;;26.88;48.11
80410;BME280;69746;45.596;10.154;2023-09-12T03:50:45;99330.50;;;26.88;47.78
80410;BME280;69746;45.596;10.154;2023-09-12T03:53:12;99331.66;;;26.87;47.84
80410;BME280;69746;45.596;10.154;2023-09-12T03:55:39;99326.88;;;26.87;47.67
80410;BME280;69746;45.596;10.154;2023-09-12T03:58:05;99328.88;;;26.87;47.78
80410;BME280;69746;45.596;10.154;2023-09-12T04:00:31;99323.28;;;26.87;48.10
80410;BME280;69746;45.596;10.154;2023-09-12T04:02:56;99327.25;;;26.86;47.81
80410;BME280;69746;45.596;10.154;2023-09-12T04:05:22;99328.06;;;26.86;47.77
80410;BME280;69746;45.596;10.154;2023-09-12T04:07:48;99333.66;;;26.86;47.69
80410;BME280;69746;45.596;10.154;2023-09-12T04:10:14;99327.25;;;26.86;47.89
80410;BME280;69746;45.596;10.154;2023-09-12T04:12:40;99332.84;;;26.86;47.86
80410;BME280;69746;45.596;10.154;2023-09-12T04:15:09;99326.44;;;26.85;48.06
80410;BME280;69746;45.596;10.154;2023-09-12T04:17:35;99330.03;;;26.86;47.88
80410;BME280;69746;45.596;10.154;2023-09-12T04:20:01;99332.03;;;26.85;47.77
80410;BME280;69746;45.596;10.154;2023-09-12T04:22:27;99333.19;;;26.84;47.74
80410;BME280;69746;45.596;10.154;2023-09-12T04:24:54;99336.81;;;26.85;47.75
80410;BME280;69746;45.596;10.154;2023-09-12T04:27:20;99336.00;;;26.84;47.82
80410;BME280;69746;45.596;10.154;2023-09-12T04:29:45;99331.56;;;26.83;47.78
80410;BME280;69746;45.596;10.154;2023-09-12T04:32:12;99336.81;;;26.85;47.63
80410;BME280;69746;45.596;10.154;2023-09-12T04:34:38;99340.78;;;26.84;47.98
80410;BME280;69746;45.596;10.154;2023-09-12T04:37:03;99343.59;;;26.84;48.02
80410;BME280;69746;45.596;10.154;2023-09-12T04:39:31;99341.59;;;26.84;47.93
80410;BME280;69746;45.596;10.154;2023-09-12T04:41:57;99348.00;;;26.85;47.91
80410;BME280;69746;45.596;10.154;2023-09-12T04:44:23;99342.75;;;26.83;48.10
80410;BME280;69746;45.596;10.154;2023-09-12T04:46:49;99348.38;;;26.83;47.73
80410;BME280;69746;45.596;10.154;2023-09-12T04:49:18;99345.56;;;26.83;47.78
80410;BME280;69746;45.596;10.154;2023-09-12T04:51:44;99345.56;;;26.83;47.76
80410;BME280;69746;45.596;10.154;2023-09-12T04:54:10;99356.75;;;26.83;47.82
80410;BME280;69746;45.596;10.154;2023-09-12T04:56:36;99355.94;;;26.83;48.00
80410;BME280;69746;45.596;10.154;2023-09-12T04:59:02;99362.34;;;26.83;47.92
80410;BME280;69746;45.596;10.154;2023-09-12T05:01:27;99361.53;;;26.83;47.91
80410;BME280;69746;45.596;10.154;2023-09-12T05:03:53;99363.50;;;26.82;48.09
80410;BME280;69746;45.596;10.154;2023-09-12T05:06:19;99369.09;;;26.82;47.73
80410;BME280;69746;45.596;10.154;2023-09-12T05:08:45;99365.47;;;26.82;47.84
80410;BME280;69746;45.596;10.154;2023-09-12T05:11:11;99373.06;;;26.81;47.85
80410;BME280;69746;45.596;10.154;2023-09-12T05:13:37;99369.44;;;26.81;48.22
80410;BME280;69746;45.596;10.154;2023-09-12T05:16:02;99370.63;;;26.80;47.85
80410;BME280;69746;45.596;10.154;2023-09-12T05:18:29;99372.25;;;26.81;47.90
80410;BME280;69746;45.596;10.154;2023-09-12T05:20:55;99372.25;;;26.81;47.91
80410;BME280;69746;45.596;10.154;2023-09-12T05:23:23;99385.44;;;26.80;47.96
80410;BME280;69746;45.596;10.154;2023-09-12T05:25:50;99385.44;;;26.80;47.98
80410;BME280;69746;45.596;10.154;2023-09-12T05:28:15;99389.84;;;26.81;47.79
80410;BME280;69746;45.596;10.154;2023-09-12T05:30:43;99393.81;;;26.80;47.95
80410;BME280;69746;45.596;10.154;2023-09-12T05:33:09;99389.41;;;26.79;47.97
80410;BME280;69746;45.596;10.154;2023-09-12T05:35:40;99390.22;;;26.80;48.11
80410;BME280;69746;45.596;10.154;2023-09-12T05:38:08;99397.78;;;26.79;48.00
80410;BME280;69746;45.596;10.154;2023-09-12T05:40:34;99391.38;;;26.79;48.22
80410;BME280;69746;45.596;10.154;2023-09-12T05:43:00;99384.63;;;26.80;47.93
80410;BME280;69746;45.596;10.154;2023-09-12T05:45:25;99398.59;;;26.80;48.13
80410;BME280;69746;45.596;10.154;2023-09-12T05:47:51;99398.59;;;26.80;48.07
80410;BME280;69746;45.596;10.154;2023-09-12T05:50:18;99394.19;;;26.79;48.20
80410;BME280;69746;45.596;10.154;2023-09-12T05:52:44;99395.00;;;26.79;48.10
80410;BME280;69746;45.596;10.154;2023-09-12T05:55:10;99400.59;;;26.79;48.25
80410;BME280;69746;45.596;10.154;2023-09-12T05:57:35;99398.59;;;26.80;47.96
80410;BME280;69746;45.596;10.154;2023-09-12T06:00:03;99395.81;;;26.80;48.21
80410;BME280;69746;45.596;10.154;2023-09-12T06:02:35;99397.78;;;26.79;48.01
80410;BME280;69746;45.596;10.154;2023-09-12T06:05:01;99391.03;;;26.80;48.24
80410;BME280;69746;45.596;10.154;2023-09-12T06:07:28;99393.81;;;26.80;48.13
80410;BME280;69746;45.596;10.154;2023-09-12T06:09:56;99393.81;;;26.80;48.27
80410;BME280;69746;45.596;10.154;2023-09-12T06:12:22;99388.22;;;26.80;48.37
80410;BME280;69746;45.596;10.154;2023-09-12T06:14:51;99391.03;;;26.80;48.30
80410;BME280;69746;45.596;10.154;2023-09-12T06:17:19;99385.78;;;26.79;48.06
80410;BME280;69746;45.596;10.154;2023-09-12T06:19:47;99388.59;;;26.79;48.41
80410;BME280;69746;45.596;10.154;2023-09-12T06:22:15;99389.03;;;26.81;48.16
80410;BME280;69746;45.596;10.154;2023-09-12T06:24:43;99387.41;;;26.80;48.17
80410;BME280;69746;45.596;10.154;2023-09-12T06:27:08;99395.00;;;26.79;48.35
80410;BME280;69746;45.596;10.154;2023-09-12T06:29:35;99393.81;;;26.80;48.21
80410;BME280;69746;45.596;10.154;2023-09-12T06:32:01;99405.84;;;26.81;48.20
80410;BME280;69746;45.596;10.154;2023-09-12T06:34:27;99396.63;;;26.80;48.16
80410;BME280;69746;45.596;10.154;2023-09-12T06:36:53;99400.22;;;26.81;48.45
80410;BME280;69746;45.596;10.154;2023-09-12T06:39:19;99400.22;;;26.81;48.24
80410;BME280;69746;45.596;10.154;2023-09-12T06:41:45;99406.66;;;26.81;48.58
80410;BME280;69746;45.596;10.154;2023-09-12T06:44:11;99402.22;;;26.80;48.22
80410;BME280;69746;45.596;10.154;2023-09-12T06:46:37;99411.06;;;26.82;48.17
80410;BME280;69746;45.596;10.154;2023-09-12T06:49:03;99405.47;;;26.82;48.23
80410;BME280;69746;45.596;10.154;2023-09-12T06:51:29;99407.81;;;26.80;48.44
80410;BME280;69746;45.596;10.154;2023-09-12T06:53:55;99403.53;;;26.83;48.44
80410;BME280;69746;45.596;10.154;2023-09-12T06:56:21;99413.06;;;26.82;48.37
80410;BME280;69746;45.596;10.154;2023-09-12T06:58:48;99408.75;;;26.84;48.45
80410;BME280;69746;45.596;10.154;2023-09-12T07:01:13;99415.53;;;26.83;48.38
80410;BME280;69746;45.596;10.154;2023-09-12T07:03:40;99407.13;;;26.83;48.32
80410;BME280;69746;45.596;10.154;2023-09-12T07:06:06;99405.16;;;26.84;48.44
80410;BME280;69746;45.596;10.154;2023-09-12T07:08:32;99402.34;;;26.84;48.25
80410;BME280;69746;45.596;10.154;2023-09-12T07:10:59;99407.59;;;26.85;48.42
80410;BME280;69746;45.596;10.154;2023-09-12T07:13:32;99411.22;;;26.86;48.28
80410;BME280;69746;45.596;10.154;2023-09-12T07:15:59;99412.84;;;26.87;48.32
80410;BME280;69746;45.596;10.154;2023-09-12T07:18:32;99411.22;;;26.86;48.50
80410;BME280;69746;45.596;10.154;2023-09-12T07:21:02;99420.41;;;26.86;48.32
80410;BME280;69746;45.596;10.154;2023-09-12T07:23:29;99430.81;;;26.86;48.51
80410;BME280;69746;45.596;10.154;2023-09-12T07:25:55;99423.56;;;26.85;48.54
80410;BME280;69746;45.596;10.154;2023-09-12T07:28:25;99420.41;;;26.86;48.41
80410;BME280;69746;45.596;10.154;2023-09-12T07:30:51;99420.41;;;26.86;48.15
80410;BME280;69746;45.596;10.154;2023-09-12T07:33:17;99435.22;;;26.87;48.47
80410;BME280;69746;45.596;10.154;2023-09-12T07:35:43;99432.06;;;26.88;48.27
80410;BME280;69746;45.596;10.154;2023-09-12T07:38:08;99434.06;;;26.88;48.28
80410;BME280;69746;45.596;10.154;2023-09-12T07:40:34;99437.66;;;26.88;48.28
80410;BME280;69746;45.596;10.154;2023-09-12T07:43:00;99432.88;;;26.89;48.21
80410;BME280;69746;45.596;10.154;2023-09-12T07:45:26;99432.06;;;26.88;48.16
80410;BME280;69746;45.596;10.154;2023-09-12T07:47:56;99439.31;;;26.89;48.14
80410;BME280;69746;45.596;10.154;2023-09-12T07:50:22;99438.47;;;26.89;48.02
80410;BME280;69746;45.596;10.154;2023-09-12T07:52:48;99439.31;;;26.89;48.32
80410;BME280;69746;45.596;10.154;2023-09-12T07:55:14;99444.53;;;26.91;48.03
80410;BME280;69746;45.596;10.154;2023-09-12T07:57:42;99439.31;;;26.89;48.22
80410;BME280;69746;45.596;10.154;2023-09-12T08:00:09;99443.72;;;26.90;48.08
80410;BME280;69746;45.596;10.154;2023-09-12T08:02:35;99442.91;;;26.90;48.20
80410;BME280;69746;45.596;10.154;2023-09-12T08:05:01;99452.94;;;26.91;48.24
80410;BME280;69746;45.596;10.154;2023-09-12T08:07:30;99456.56;;;26.91;48.16
80410;BME280;69746;45.596;10.154;2023-09-12T08:09:57;99449.31;;;26.90;48.03
80410;BME280;69746;45.596;10.154;2023-09-12T08:12:25;99450.97;;;26.91;48.31
80410;BME280;69746;45.596;10.154;2023-09-12T08:14:52;99456.56;;;26.91;48.13
80410;BME280;69746;45.596;10.154;2023-09-12T08:17:19;99454.56;;;26.92;47.89
80410;BME280;69746;45.596;10.154;2023-09-12T08:19:45;99447.81;;;26.93;48.55
80410;BME280;69746;45.596;10.154;2023-09-12T08:22:11;99450.59;;;26.93;47.98
80410;BME280;69746;45.596;10.154;2023-09-12T08:24:38;99459.00;;;26.93;48.40
80410;BME280;69746;45.596;10.154;2023-09-12T08:27:07;99462.16;;;26.91;48.33
80410;BME280;69746;45.596;10.154;2023-09-12T08:29:38;99455.84;;;26.94;48.25
80410;BME280;69746;45.596;10.154;2023-09-12T08:32:04;99460.63;;;26.94;48.27
80410;BME280;69746;45.596;10.154;2023-09-12T08:34:30;99461.44;;;26.94;48.27
80410;BME280;69746;45.596;10.154;2023-09-12T08:36:56;99460.28;;;26.95;48.27
80410;BME280;69746;45.596;10.154;2023-09-12T08:39:26;99461.13;;;26.96;48.22
80410;BME280;69746;45.596;10.154;2023-09-12T08:41:53;99458.31;;;26.96;48.22
80410;BME280;69746;45.596;10.154;2023-09-12T08:44:21;99461.94;;;26.96;48.20
80410;BME280;69746;45.596;10.154;2023-09-12T08:46:47;99454.34;;;26.97;48.15
80410;BME280;69746;45.596;10.154;2023-09-12T08:49:15;99451.56;;;26.97;48.21
80410;BME280;69746;45.596;10.154;2023-09-12T08:51:44;99454.34;;;26.97;48.32
80410;BME280;69746;45.596;10.154;2023-09-12T08:54:10;99462.75;;;26.97;48.42
80410;BME280;69746;45.596;10.154;2023-09-12T08:56:39;99462.38;;;26.98;48.33
80410;BME280;69746;45.596;10.154;2023-09-12T08:59:06;99461.44;;;26.94;48.50
80410;BME280;69746;45.596;10.154;2023-09-12T09:01:32;99459.59;;;26.98;48.40
80410;BME280;69746;45.596;10.154;2023-09-12T09:04:02;99456.78;;;26.98;48.33
80410;BME280;69746;45.596;10.154;2023-09-12T09:06:31;99457.59;;;26.99;48.40
80410;BME280;69746;45.596;10.154;2023-09-12T09:09:05;99457.16;;;26.97;48.25
80410;BME280;69746;45.596;10.154;2023-09-12T09:11:36;99453.19;;;26.98;48.26
80410;BME280;69746;45.596;10.154;2023-09-12T09:14:03;99451.19;;;26.98;48.31
80410;BME280;69746;45.596;10.154;2023-09-12T09:16:29;99436.38;;;26.98;48.46
80410;BME280;69746;45.596;10.154;2023-09-12T09:19:03;99449.22;;;26.99;48.15
80410;BME280;69746;45.596;10.154;2023-09-12T09:21:36;99440.69;;;26.95;48.39
80410;BME280;69746;45.596;10.154;2023-09-12T09:24:06;99437.19;;;26.98;48.38
80410;BME280;69746;45.596;10.154;2023-09-12T09:29:16;99446.06;;;27.00;48.64
80410;BME280;69746;45.596;10.154;2023-09-12T09:31:47;99447.22;;;26.99;48.36
80410;BME280;69746;45.596;10.154;2023-09-12T09:34:15;99450.84;;;27.00;48.29
80410;BME280;69746;45.596;10.154;2023-09-12T09:36:42;99450.84;;;27.00;48.29
80410;BME280;69746;45.596;10.154;2023-09-12T09:39:08;99456.09;;;27.01;48.34
80410;BME280;69746;45.596;10.154;2023-09-12T09:41:35;99449.34;;;27.02;48.35
80410;BME280;69746;45.596;10.154;2023-09-12T09:44:02;99440.13;;;27.02;48.57
80410;BME280;69746;45.596;10.154;2023-09-12T09:46:29;99433.34;;;27.03;48.62
80410;BME280;69746;45.596;10.154;2023-09-12T09:48:55;99441.75;;;27.03;48.47
80410;BME280;69746;45.596;10.154;2023-09-12T09:51:22;99438.97;;;27.03;48.55
80410;BME280;69746;45.596;10.154;2023-09-12T09:53:51;99442.22;;;27.05;48.48
80410;BME280;69746;45.596;10.154;2023-09-12T09:56:17;99440.59;;;27.04;48.76
80410;BME280;69746;45.596;10.154;2023-09-12T09:58:53;99444.19;;;27.04;48.73
80410;BME280;69746;45.596;10.154;2023-09-12T10:01:27;99445.00;;;27.05;48.81
80410;BME280;69746;45.596;10.154;2023-09-12T10:03:57;99433.47;;;27.07;48.75
80410;BME280;69746;45.596;10.154;2023-09-12T10:06:24;99437.88;;;27.08;49.00
80410;BME280;69746;45.596;10.154;2023-09-12T10:08:52;99437.06;;;27.07;48.99
80410;BME280;69746;45.596;10.154;2023-09-12T10:11:22;99437.56;;;27.09;49.17
80410;BME280;69746;45.596;10.154;2023-09-12T10:13:53;99440.38;;;27.09;49.18
80410;BME280;69746;45.596;10.154;2023-09-12T10:16:31;99442.00;;;27.10;49.24
80410;BME280;69746;45.596;10.154;2023-09-12T10:19:17;99437.22;;;27.11;49.32
80410;BME280;69746;45.596;10.154;2023-09-12T10:21:58;99439.19;;;27.10;49.22
80410;BME280;69746;45.596;10.154;2023-09-12T10:24:39;99432.41;;;27.11;49.32
80410;BME280;69746;45.596;10.154;2023-09-12T10:27:08;99435.22;;;27.11;49.32
80410;BME280;69746;45.596;10.154;2023-09-12T10:29:35;99427.63;;;27.12;49.18
80410;BME280;69746;45.596;10.154;2023-09-12T10:32:02;99434.41;;;27.11;49.26
80410;BME280;69746;45.596;10.154;2023-09-12T10:34:31;99435.22;;;27.11;49.28
80410;BME280;69746;45.596;10.154;2023-09-12T10:37:03;99438.84;;;27.12;49.57
80410;BME280;69746;45.596;10.154;2023-09-12T10:39:34;99431.25;;;27.12;49.27
80410;BME280;69746;45.596;10.154;2023-09-12T10:42:04;99432.06;;;27.13;49.23
80410;BME280;69746;45.596;10.154;2023-09-12T10:44:31;99434.84;;;27.13;49.17
80410;BME280;69746;45.596;10.154;2023-09-12T10:46:58;99439.28;;;27.14;49.22
80410;BME280;69746;45.596;10.154;2023-09-12T10:49:25;99430.06;;;27.13;49.41
80410;BME280;69746;45.596;10.154;2023-09-12T10:51:51;99435.31;;;27.15;49.49
80410;BME280;69746;45.596;10.154;2023-09-12T10:54:35;99431.34;;;27.16;49.57
80410;BME280;69746;45.596;10.154;2023-09-12T10:57:04;99430.53;;;27.15;49.22
80410;BME280;69746;45.596;10.154;2023-09-12T10:59:34;99434.16;;;27.16;49.53
80410;BME280;69746;45.596;10.154;2023-09-12T11:02:27;99432.97;;;27.17;49.40
80410;BME280;69746;45.596;10.154;2023-09-12T11:04:54;99432.97;;;27.17;49.18
80410;BME280;69746;45.596;10.154;2023-09-12T11:07:43;99420.97;;;27.16;49.46
80410;BME280;69746;45.596;10.154;2023-09-12T11:10:17;99431.00;;;27.17;49.38
80410;BME280;69746;45.596;10.154;2023-09-12T11:12:50;99424.56;;;27.17;49.32
80410;BME280;69746;45.596;10.154;2023-09-12T11:15:17;99429.00;;;27.18;49.64
80410;BME280;69746;45.596;10.154;2023-09-12T11:17:45;99424.22;;;27.18;49.57
80410;BME280;69746;45.596;10.154;2023-09-12T11:20:15;99415.00;;;27.18;49.35
80410;BME280;69746;45.596;10.154;2023-09-12T11:22:46;99416.63;;;27.19;49.59
80410;BME280;69746;45.596;10.154;2023-09-12T11:25:25;99413.81;;;27.19;49.38
80410;BME280;69746;45.596;10.154;2023-09-12T11:30:26;99411.03;;;27.19;49.44
80410;BME280;69746;45.596;10.154;2023-09-12T11:32:57;99404.63;;;27.18;49.55
80410;BME280;69746;45.596;10.154;2023-09-12T11:35:26;99400.63;;;27.19;49.45
80410;BME280;69746;45.596;10.154;2023-09-12T11:37:58;99400.28;;;27.21;49.37
80410;BME280;69746;45.596;10.154;2023-09-12T11:43:01;99391.06;;;27.20;49.55
80410;BME280;69746;45.596;10.154;2023-09-12T11:45:27;99393.53;;;27.22;49.53
80410;BME280;69746;45.596;10.154;2023-09-12T11:47:56;99388.25;;;27.20;49.52
80410;BME280;69746;45.596;10.154;2023-09-12T11:53:08;99385.94;;;27.22;49.85
80410;BME280;69746;45.596;10.154;2023-09-12T11:55:44;99370.28;;;27.21;49.60
80410;BME280;69746;45.596;10.154;2023-09-12T11:58:16;99383.16;;;27.22;49.40
80410;BME280;69746;45.596;10.154;2023-09-12T12:00:50;99380.34;;;27.22;49.38
80410;BME280;69746;45.596;10.154;2023-09-12T12:03:18;99369.16;;;27.22;49.57
80410;BME280;69746;45.596;10.154;2023-09-12T12:05:45;99375.56;;;27.23;49.36
80410;BME280;69746;45.596;10.154;2023-09-12T12:08:12;99362.38;;;27.23;49.66
80410;BME280;69746;45.596;10.154;2023-09-12T12:10:39;99359.56;;;27.23;49.47
80410;BME280;69746;45.596;10.154;2023-09-12T12:13:17;99358.41;;;27.24;49.63
80410;BME280;69746;45.596;10.154;2023-09-12T12:15:44;99350.00;;;27.24;49.52
80410;BME280;69746;45.596;10.154;2023-09-12T12:18:13;99348.38;;;27.23;49.36
80410;BME280;69746;45.596;10.154;2023-09-12T12:20:58;99348.00;;;27.25;49.32
80410;BME280;69746;45.596;10.154;2023-09-12T12:23:25;99350.00;;;27.24;49.29
80410;BME280;69746;45.596;10.154;2023-09-12T12:25:51;99348.00;;;27.25;49.37
80410;BME280;69746;45.596;10.154;2023-09-12T12:28:20;99342.41;;;27.25;49.28
80410;BME280;69746;45.596;10.154;2023-09-12T12:30:51;99337.63;;;27.25;49.21
80410;BME280;69746;45.596;10.154;2023-09-12T12:33:19;99341.25;;;27.26;49.21
80410;BME280;69746;45.596;10.154;2023-09-12T12:35:45;99342.41;;;27.25;49.34
80410;BME280;69746;45.596;10.154;2023-09-12T12:38:13;99350.44;;;27.26;49.32
80410;BME280;69746;45.596;10.154;2023-09-12T12:40:42;99344.84;;;27.26;49.28
80410;BME280;69746;45.596;10.154;2023-09-12T12:43:17;99340.06;;;27.27;49.29
80410;BME280;69746;45.596;10.154;2023-09-12T12:45:55;99333.28;;;27.28;49.16
80410;BME280;69746;45.596;10.154;2023-09-12T12:48:32;99341.69;;;27.28;49.06
80410;BME280;69746;45.596;10.154;2023-09-12T12:51:18;99340.88;;;27.27;48.96
80410;BME280;69746;45.596;10.154;2023-09-12T12:53:47;99335.28;;;27.27;48.59
80410;BME280;69746;45.596;10.154;2023-09-12T12:56:19;99337.25;;;27.27;48.46
80410;BME280;69746;45.596;10.154;2023-09-12T12:58:52;99340.06;;;27.27;48.41
80410;BME280;69746;45.596;10.154;2023-09-12T13:01:21;99333.28;;;27.28;48.41
80410;BME280;69746;45.596;10.154;2023-09-12T13:03:47;99331.66;;;27.27;48.20
80410;BME280;69746;45.596;10.154;2023-09-12T13:06:16;99324.88;;;27.28;48.14
80410;BME280;69746;45.596;10.154;2023-09-12T13:08:44;99327.69;;;27.28;48.13
80410;BME280;69746;45.596;10.154;2023-09-12T13:11:14;99323.25;;;27.27;48.23